sensor_id;sensor_type;location;lat;lon;timestamp;P1;durP1;ratioP1;P2;durP2;ratioP2
46767;SDS011;69007;48.978;18.066;2023-05-02T00:02:13;3.42;;;2.25;;
46767;SDS011;69007;48.978;18.066;2023-05-02T00:04:38;3.60;;;2.60;;
46767;SDS011;69007;48.978;18.066;2023-05-02T00:07:04;3.13;;;2.03;;
46767;SDS011;69007;48.978;18.066;2023-05-02T00:09:29;4.03;;;2.33;;
46767;SDS011;69007;48.978;18.066;2023-05-02T00:11:55;2.92;;;2.10;;
46767;SDS011;69007;48.978;18.066;2023-05-02T00:14:20;5.25;;;2.30;;
46767;SDS011;69007;48.978;18.066;2023-05-02T00:16:45;3.50;;;2.33;;
46767;SDS011;69007;48.978;18.066;2023-05-02T00:19:11;9.93;;;3.05;;
46767;SDS011;69007;48.978;18.066;2023-05-02T00:21:36;2.40;;;2.20;;
46767;SDS011;69007;48.978;18.066;2023-05-02T00:24:01;2.58;;;2.13;;
46767;SDS011;69007;48.978;18.066;2023-05-02T00:26:27;4.07;;;2.20;;
46767;SDS011;69007;48.978;18.066;2023-05-02T00:28:52;3.55;;;2.60;;
46767;SDS011;69007;48.978;18.066;2023-05-02T00:31:18;2.67;;;2.00;;
46767;SDS011;69007;48.978;18.066;2023-05-02T00:33:43;3.60;;;2.25;;
46767;SDS011;69007;48.978;18.066;2023-05-02T00:36:12;2.88;;;2.33;;
46767;SDS011;69007;48.978;18.066;2023-05-02T00:38:38;2.53;;;2.33;;
46767;SDS011;69007;48.978;18.066;2023-05-02T00:41:04;7.82;;;2.85;;
46767;SDS011;69007;48.978;18.066;2023-05-02T00:43:30;2.72;;;1.98;;
46767;SDS011;69007;48.978;18.066;2023-05-02T00:45:56;2.47;;;2.30;;
46767;SDS011;69007;48.978;18.066;2023-05-02T00:48:22;3.63;;;2.20;;
46767;SDS011;69007;48.978;18.066;2023-05-02T00:50:49;2.25;;;1.92;;
46767;SDS011;69007;48.978;18.066;2023-05-02T00:53:15;2.50;;;2.30;;
46767;SDS011;69007;48.978;18.066;2023-05-02T00:55:40;3.45;;;1.95;;
46767;SDS011;69007;48.978;18.066;2023-05-02T00:58:07;2.13;;;1.83;;
46767;SDS011;69007;48.978;18.066;2023-05-02T01:00:45;4.28;;;2.13;;
46767;SDS011;69007;48.978;18.066;2023-05-02T01:12:48;3.70;;;2.38;;
46767;SDS011;69007;48.978;18.066;2023-05-02T01:15:18;2.92;;;2.13;;
46767;SDS011;69007;48.978;18.066;2023-05-02T01:17:45;2.10;;;1.90;;
46767;SDS011;69007;48.978;18.066;2023-05-02T01:20:14;3.08;;;1.70;;
46767;SDS011;69007;48.978;18.066;2023-05-02T01:22:44;1.92;;;1.77;;
46767;SDS011;69007;48.978;18.066;2023-05-02T01:30:31;4.50;;;1.90;;
46767;SDS011;69007;48.978;18.066;2023-05-02T01:32:59;11.05;;;2.13;;
46767;SDS011;69007;48.978;18.066;2023-05-02T01:35:26;3.40;;;1.70;;
46767;SDS011;69007;48.978;18.066;2023-05-02T01:37:52;5.55;;;2.13;;
46767;SDS011;69007;48.978;18.066;2023-05-02T01:40:19;2.47;;;2.15;;
46767;SDS011;69007;48.978;18.066;2023-05-02T01:42:47;2.38;;;2.05;;
46767;SDS011;69007;48.978;18.066;2023-05-02T01:45:15;3.30;;;1.70;;
46767;SDS011;69007;48.978;18.066;2023-05-02T01:47:43;2.08;;;1.52;;
46767;SDS011;69007;48.978;18.066;2023-05-02T01:50:14;3.50;;;2.28;;
46767;SDS011;69007;48.978;18.066;2023-05-02T01:52:41;2.17;;;1.98;;
46767;SDS011;69007;48.978;18.066;2023-05-02T01:55:09;2.65;;;1.80;;
46767;SDS011;69007;48.978;18.066;2023-05-02T01:57:38;1.80;;;1.70;;
46767;SDS011;69007;48.978;18.066;2023-05-02T02:00:05;2.28;;;1.92;;
46767;SDS011;69007;48.978;18.066;2023-05-02T02:02:32;2.90;;;2.00;;
46767;SDS011;69007;48.978;18.066;2023-05-02T02:04:59;3.35;;;1.80;;
46767;SDS011;69007;48.978;18.066;2023-05-02T02:07:27;3.70;;;2.00;;
46767;SDS011;69007;48.978;18.066;2023-05-02T02:09:53;4.32;;;1.90;;
46767;SDS011;69007;48.978;18.066;2023-05-02T02:12:22;3.47;;;1.85;;
46767;SDS011;69007;48.978;18.066;2023-05-02T02:14:55;2.17;;;1.90;;
46767;SDS011;69007;48.978;18.066;2023-05-02T02:17:29;3.55;;;1.85;;
46767;SDS011;69007;48.978;18.066;2023-05-02T02:20:02;3.15;;;2.33;;
46767;SDS011;69007;48.978;18.066;2023-05-02T02:22:33;2.53;;;1.70;;
46767;SDS011;69007;48.978;18.066;2023-05-02T02:25:01;2.47;;;1.80;;
46767;SDS011;69007;48.978;18.066;2023-05-02T02:27:30;4.60;;;2.00;;
46767;SDS011;69007;48.978;18.066;2023-05-02T02:29:56;3.15;;;2.85;;
46767;SDS011;69007;48.978;18.066;2023-05-02T02:32:21;3.75;;;1.90;;
46767;SDS011;69007;48.978;18.066;2023-05-02T02:34:46;1.92;;;1.50;;
46767;SDS011;69007;48.978;18.066;2023-05-02T02:37:17;2.17;;;1.80;;
46767;SDS011;69007;48.978;18.066;2023-05-02T02:45:33;3.65;;;1.88;;
46767;SDS011;69007;48.978;18.066;2023-05-02T02:53:46;4.75;;;1.60;;
46767;SDS011;69007;48.978;18.066;2023-05-02T02:56:15;1.80;;;1.70;;
46767;SDS011;69007;48.978;18.066;2023-05-02T02:58:50;3.92;;;2.00;;
46767;SDS011;69007;48.978;18.066;2023-05-02T03:01:23;2.75;;;1.90;;
46767;SDS011;69007;48.978;18.066;2023-05-02T03:03:50;3.70;;;1.90;;
46767;SDS011;69007;48.978;18.066;2023-05-02T03:06:17;1.85;;;1.65;;
46767;SDS011;69007;48.978;18.066;2023-05-02T03:08:43;5.57;;;1.92;;
46767;SDS011;69007;48.978;18.066;2023-05-02T03:11:09;3.35;;;1.95;;
46767;SDS011;69007;48.978;18.066;2023-05-02T03:13:34;4.15;;;2.25;;
46767;SDS011;69007;48.978;18.066;2023-05-02T03:18:25;2.17;;;1.80;;
46767;SDS011;69007;48.978;18.066;2023-05-02T03:20:51;4.78;;;1.98;;
46767;SDS011;69007;48.978;18.066;2023-05-02T03:23:16;1.95;;;1.75;;
46767;SDS011;69007;48.978;18.066;2023-05-02T03:25:42;6.13;;;1.80;;
46767;SDS011;69007;48.978;18.066;2023-05-02T03:28:07;4.15;;;1.88;;
46767;SDS011;69007;48.978;18.066;2023-05-02T03:30:32;4.47;;;1.67;;
46767;SDS011;69007;48.978;18.066;2023-05-02T03:32:57;3.80;;;2.60;;
46767;SDS011;69007;48.978;18.066;2023-05-02T03:35:24;2.67;;;1.67;;
46767;SDS011;69007;48.978;18.066;2023-05-02T03:37:49;2.75;;;1.98;;
46767;SDS011;69007;48.978;18.066;2023-05-02T03:40:14;4.75;;;1.88;;
46767;SDS011;69007;48.978;18.066;2023-05-02T03:42:40;2.00;;;1.80;;
46767;SDS011;69007;48.978;18.066;2023-05-02T03:45:06;4.47;;;1.63;;
46767;SDS011;69007;48.978;18.066;2023-05-02T03:47:32;3.35;;;2.17;;
46767;SDS011;69007;48.978;18.066;2023-05-02T03:49:58;5.45;;;2.20;;
46767;SDS011;69007;48.978;18.066;2023-05-02T03:52:24;4.28;;;2.22;;
46767;SDS011;69007;48.978;18.066;2023-05-02T03:54:50;2.20;;;1.70;;
46767;SDS011;69007;48.978;18.066;2023-05-02T03:57:16;8.48;;;2.00;;
46767;SDS011;69007;48.978;18.066;2023-05-02T03:59:41;2.38;;;2.15;;
46767;SDS011;69007;48.978;18.066;2023-05-02T04:02:09;2.10;;;1.90;;
46767;SDS011;69007;48.978;18.066;2023-05-02T04:04:37;2.20;;;2.00;;
46767;SDS011;69007;48.978;18.066;2023-05-02T04:07:04;4.03;;;2.03;;
46767;SDS011;69007;48.978;18.066;2023-05-02T04:09:31;2.92;;;2.20;;
46767;SDS011;69007;48.978;18.066;2023-05-02T04:11:57;5.93;;;2.13;;
46767;SDS011;69007;48.978;18.066;2023-05-02T04:14:22;6.10;;;2.67;;
46767;SDS011;69007;48.978;18.066;2023-05-02T04:16:48;6.60;;;3.05;;
46767;SDS011;69007;48.978;18.066;2023-05-02T04:19:14;3.30;;;3.00;;
46767;SDS011;69007;48.978;18.066;2023-05-02T04:21:40;4.72;;;3.58;;
46767;SDS011;69007;48.978;18.066;2023-05-02T04:24:06;5.78;;;3.78;;
46767;SDS011;69007;48.978;18.066;2023-05-02T04:26:33;6.18;;;3.78;;
46767;SDS011;69007;48.978;18.066;2023-05-02T04:28:58;6.88;;;2.80;;
46767;SDS011;69007;48.978;18.066;2023-05-02T04:31:23;4.90;;;3.20;;
46767;SDS011;69007;48.978;18.066;2023-05-02T04:33:49;3.72;;;2.70;;
46767;SDS011;69007;48.978;18.066;2023-05-02T04:36:14;16.35;;;4.90;;
46767;SDS011;69007;48.978;18.066;2023-05-02T04:38:40;10.98;;;5.03;;
46767;SDS011;69007;48.978;18.066;2023-05-02T04:41:06;13.48;;;5.43;;
46767;SDS011;69007;48.978;18.066;2023-05-02T04:43:31;9.45;;;4.18;;
46767;SDS011;69007;48.978;18.066;2023-05-02T04:45:57;10.23;;;4.10;;
46767;SDS011;69007;48.978;18.066;2023-05-02T04:48:22;8.48;;;3.97;;
46767;SDS011;69007;48.978;18.066;2023-05-02T04:50:49;8.10;;;5.10;;
46767;SDS011;69007;48.978;18.066;2023-05-02T04:53:14;7.32;;;3.20;;
46767;SDS011;69007;48.978;18.066;2023-05-02T04:55:39;6.80;;;4.43;;
46767;SDS011;69007;48.978;18.066;2023-05-02T04:58:06;9.45;;;6.53;;
46767;SDS011;69007;48.978;18.066;2023-05-02T05:00:32;13.90;;;8.80;;
46767;SDS011;69007;48.978;18.066;2023-05-02T05:02:58;7.72;;;5.10;;
46767;SDS011;69007;48.978;18.066;2023-05-02T05:05:23;4.10;;;2.90;;
46767;SDS011;69007;48.978;18.066;2023-05-02T05:07:48;4.88;;;2.20;;
46767;SDS011;69007;48.978;18.066;2023-05-02T05:10:16;3.95;;;2.50;;
46767;SDS011;69007;48.978;18.066;2023-05-02T05:12:42;4.63;;;3.28;;
46767;SDS011;69007;48.978;18.066;2023-05-02T05:15:07;4.07;;;2.92;;
46767;SDS011;69007;48.978;18.066;2023-05-02T05:17:33;6.45;;;3.00;;
46767;SDS011;69007;48.978;18.066;2023-05-02T05:19:58;4.03;;;2.72;;
46767;SDS011;69007;48.978;18.066;2023-05-02T05:22:24;3.53;;;2.60;;
46767;SDS011;69007;48.978;18.066;2023-05-02T05:24:50;8.70;;;3.22;;
46767;SDS011;69007;48.978;18.066;2023-05-02T05:27:16;4.93;;;2.55;;
46767;SDS011;69007;48.978;18.066;2023-05-02T05:29:41;5.85;;;2.45;;
46767;SDS011;69007;48.978;18.066;2023-05-02T05:32:07;4.18;;;2.85;;
46767;SDS011;69007;48.978;18.066;2023-05-02T05:34:32;4.18;;;3.00;;
46767;SDS011;69007;48.978;18.066;2023-05-02T05:36:58;5.35;;;2.97;;
46767;SDS011;69007;48.978;18.066;2023-05-02T05:39:24;3.40;;;2.90;;
46767;SDS011;69007;48.978;18.066;2023-05-02T05:41:50;3.70;;;3.05;;
46767;SDS011;69007;48.978;18.066;2023-05-02T05:44:15;4.65;;;2.70;;
46767;SDS011;69007;48.978;18.066;2023-05-02T05:46:41;6.20;;;2.60;;
46767;SDS011;69007;48.978;18.066;2023-05-02T05:49:06;3.78;;;2.92;;
46767;SDS011;69007;48.978;18.066;2023-05-02T05:51:31;2.47;;;2.17;;
46767;SDS011;69007;48.978;18.066;2023-05-02T05:53:57;4.88;;;2.65;;
46767;SDS011;69007;48.978;18.066;2023-05-02T05:56:22;4.07;;;2.90;;
46767;SDS011;69007;48.978;18.066;2023-05-02T05:58:48;9.60;;;3.92;;
46767;SDS011;69007;48.978;18.066;2023-05-02T06:01:13;7.82;;;3.42;;
46767;SDS011;69007;48.978;18.066;2023-05-02T06:03:39;6.05;;;3.75;;
46767;SDS011;69007;48.978;18.066;2023-05-02T06:06:04;7.18;;;3.75;;
46767;SDS011;69007;48.978;18.066;2023-05-02T06:08:30;11.35;;;5.05;;
46767;SDS011;69007;48.978;18.066;2023-05-02T06:10:55;5.93;;;4.55;;
46767;SDS011;69007;48.978;18.066;2023-05-02T06:13:20;4.30;;;3.40;;
46767;SDS011;69007;48.978;18.066;2023-05-02T06:15:46;4.90;;;2.95;;
46767;SDS011;69007;48.978;18.066;2023-05-02T06:18:12;4.47;;;3.35;;
46767;SDS011;69007;48.978;18.066;2023-05-02T06:20:37;4.60;;;3.35;;
46767;SDS011;69007;48.978;18.066;2023-05-02T06:23:03;6.78;;;3.00;;
46767;SDS011;69007;48.978;18.066;2023-05-02T06:25:28;7.20;;;2.65;;
46767;SDS011;69007;48.978;18.066;2023-05-02T06:27:53;6.47;;;2.70;;
46767;SDS011;69007;48.978;18.066;2023-05-02T06:30:19;5.40;;;3.25;;
46767;SDS011;69007;48.978;18.066;2023-05-02T06:32:44;4.22;;;3.00;;
46767;SDS011;69007;48.978;18.066;2023-05-02T06:35:10;4.38;;;2.60;;
46767;SDS011;69007;48.978;18.066;2023-05-02T06:37:36;4.93;;;2.85;;
46767;SDS011;69007;48.978;18.066;2023-05-02T06:40:01;10.23;;;2.78;;
46767;SDS011;69007;48.978;18.066;2023-05-02T06:42:27;7.55;;;3.13;;
46767;SDS011;69007;48.978;18.066;2023-05-02T06:44:53;4.38;;;2.58;;
46767;SDS011;69007;48.978;18.066;2023-05-02T06:47:18;7.35;;;3.00;;
46767;SDS011;69007;48.978;18.066;2023-05-02T06:49:44;4.60;;;2.60;;
46767;SDS011;69007;48.978;18.066;2023-05-02T06:52:09;5.97;;;2.88;;
46767;SDS011;69007;48.978;18.066;2023-05-02T06:54:35;6.22;;;3.10;;
46767;SDS011;69007;48.978;18.066;2023-05-02T06:57:00;5.82;;;3.60;;
46767;SDS011;69007;48.978;18.066;2023-05-02T06:59:26;5.93;;;3.50;;
46767;SDS011;69007;48.978;18.066;2023-05-02T07:01:51;4.35;;;3.17;;
46767;SDS011;69007;48.978;18.066;2023-05-02T07:04:17;3.90;;;3.25;;
46767;SDS011;69007;48.978;18.066;2023-05-02T07:06:42;4.40;;;3.27;;
46767;SDS011;69007;48.978;18.066;2023-05-02T07:09:07;3.75;;;3.03;;
46767;SDS011;69007;48.978;18.066;2023-05-02T07:11:33;5.28;;;2.70;;
46767;SDS011;69007;48.978;18.066;2023-05-02T07:13:58;3.55;;;3.20;;
46767;SDS011;69007;48.978;18.066;2023-05-02T07:16:23;6.15;;;2.75;;
46767;SDS011;69007;48.978;18.066;2023-05-02T07:18:49;3.72;;;2.70;;
46767;SDS011;69007;48.978;18.066;2023-05-02T07:21:14;5.75;;;2.75;;
46767;SDS011;69007;48.978;18.066;2023-05-02T07:23:40;5.60;;;2.40;;
46767;SDS011;69007;48.978;18.066;2023-05-02T07:26:05;6.70;;;2.47;;
46767;SDS011;69007;48.978;18.066;2023-05-02T07:28:31;5.85;;;3.83;;
46767;SDS011;69007;48.978;18.066;2023-05-02T07:30:56;8.68;;;2.22;;
46767;SDS011;69007;48.978;18.066;2023-05-02T07:33:21;4.20;;;1.90;;
46767;SDS011;69007;48.978;18.066;2023-05-02T07:35:47;9.82;;;2.08;;
46767;SDS011;69007;48.978;18.066;2023-05-02T07:38:13;7.95;;;2.00;;
46767;SDS011;69007;48.978;18.066;2023-05-02T07:40:39;2.95;;;2.03;;
46767;SDS011;69007;48.978;18.066;2023-05-02T07:43:04;9.98;;;2.25;;
46767;SDS011;69007;48.978;18.066;2023-05-02T07:45:30;3.28;;;2.00;;
46767;SDS011;69007;48.978;18.066;2023-05-02T07:47:55;4.15;;;2.00;;
46767;SDS011;69007;48.978;18.066;2023-05-02T07:50:20;4.97;;;2.00;;
46767;SDS011;69007;48.978;18.066;2023-05-02T07:52:47;5.78;;;2.00;;
46767;SDS011;69007;48.978;18.066;2023-05-02T07:55:12;3.47;;;2.08;;
46767;SDS011;69007;48.978;18.066;2023-05-02T07:57:39;5.03;;;1.80;;
46767;SDS011;69007;48.978;18.066;2023-05-02T08:00:05;2.45;;;2.20;;
46767;SDS011;69007;48.978;18.066;2023-05-02T08:02:33;6.68;;;2.08;;
46767;SDS011;69007;48.978;18.066;2023-05-02T08:05:00;3.83;;;1.90;;
46767;SDS011;69007;48.978;18.066;2023-05-02T08:07:26;3.65;;;2.08;;
46767;SDS011;69007;48.978;18.066;2023-05-02T08:09:51;4.65;;;2.00;;
46767;SDS011;69007;48.978;18.066;2023-05-02T08:12:17;10.18;;;2.30;;
46767;SDS011;69007;48.978;18.066;2023-05-02T08:14:42;2.72;;;2.00;;
46767;SDS011;69007;48.978;18.066;2023-05-02T08:17:07;5.65;;;2.25;;
46767;SDS011;69007;48.978;18.066;2023-05-02T08:19:33;5.30;;;1.58;;
46767;SDS011;69007;48.978;18.066;2023-05-02T08:21:59;4.07;;;1.90;;
46767;SDS011;69007;48.978;18.066;2023-05-02T08:24:24;5.25;;;1.90;;
46767;SDS011;69007;48.978;18.066;2023-05-02T08:26:49;7.25;;;1.80;;
46767;SDS011;69007;48.978;18.066;2023-05-02T08:29:15;4.60;;;2.00;;
46767;SDS011;69007;48.978;18.066;2023-05-02T08:31:40;7.22;;;2.33;;
46767;SDS011;69007;48.978;18.066;2023-05-02T08:34:06;2.00;;;1.88;;
46767;SDS011;69007;48.978;18.066;2023-05-02T08:36:31;2.53;;;1.80;;
46767;SDS011;69007;48.978;18.066;2023-05-02T08:38:57;3.58;;;2.20;;
46767;SDS011;69007;48.978;18.066;2023-05-02T08:41:22;4.82;;;2.10;;
46767;SDS011;69007;48.978;18.066;2023-05-02T08:43:49;4.93;;;2.08;;
46767;SDS011;69007;48.978;18.066;2023-05-02T08:46:15;9.10;;;3.17;;
46767;SDS011;69007;48.978;18.066;2023-05-02T08:48:43;2.08;;;1.85;;
46767;SDS011;69007;48.978;18.066;2023-05-02T08:51:13;3.47;;;2.13;;
46767;SDS011;69007;48.978;18.066;2023-05-02T08:53:40;7.47;;;2.53;;
46767;SDS011;69007;48.978;18.066;2023-05-02T08:56:06;5.35;;;2.25;;
46767;SDS011;69007;48.978;18.066;2023-05-02T08:58:32;8.63;;;2.15;;
46767;SDS011;69007;48.978;18.066;2023-05-02T09:00:59;6.85;;;2.30;;
46767;SDS011;69007;48.978;18.066;2023-05-02T09:05:53;5.00;;;2.50;;
46767;SDS011;69007;48.978;18.066;2023-05-02T09:08:27;4.07;;;2.10;;
46767;SDS011;69007;48.978;18.066;2023-05-02T09:10:52;2.33;;;2.10;;
46767;SDS011;69007;48.978;18.066;2023-05-02T09:13:28;4.47;;;2.83;;
46767;SDS011;69007;48.978;18.066;2023-05-02T09:18:39;2.33;;;2.13;;
46767;SDS011;69007;48.978;18.066;2023-05-02T09:21:07;3.00;;;2.35;;
46767;SDS011;69007;48.978;18.066;2023-05-02T09:23:49;2.83;;;2.05;;
46767;SDS011;69007;48.978;18.066;2023-05-02T09:28:46;9.05;;;2.58;;
46767;SDS011;69007;48.978;18.066;2023-05-02T09:31:31;3.92;;;2.30;;
46767;SDS011;69007;48.978;18.066;2023-05-02T09:34:07;4.70;;;2.35;;
46767;SDS011;69007;48.978;18.066;2023-05-02T09:36:42;3.03;;;2.40;;
46767;SDS011;69007;48.978;18.066;2023-05-02T09:39:11;4.28;;;2.70;;
46767;SDS011;69007;48.978;18.066;2023-05-02T09:44:14;2.95;;;2.28;;
46767;SDS011;69007;48.978;18.066;2023-05-02T09:46:42;4.75;;;2.50;;
46767;SDS011;69007;48.978;18.066;2023-05-02T09:49:09;5.28;;;2.50;;
46767;SDS011;69007;48.978;18.066;2023-05-02T09:51:35;2.42;;;2.03;;
46767;SDS011;69007;48.978;18.066;2023-05-02T09:54:01;7.28;;;2.53;;
46767;SDS011;69007;48.978;18.066;2023-05-02T09:56:27;4.35;;;2.75;;
46767;SDS011;69007;48.978;18.066;2023-05-02T09:59:10;5.78;;;2.70;;
46767;SDS011;69007;48.978;18.066;2023-05-02T10:01:39;4.65;;;2.67;;
46767;SDS011;69007;48.978;18.066;2023-05-02T10:04:06;3.05;;;2.50;;
46767;SDS011;69007;48.978;18.066;2023-05-02T10:06:41;4.75;;;2.83;;
46767;SDS011;69007;48.978;18.066;2023-05-02T10:09:08;4.90;;;2.92;;
46767;SDS011;69007;48.978;18.066;2023-05-02T10:11:36;2.67;;;2.47;;
46767;SDS011;69007;48.978;18.066;2023-05-02T10:14:04;6.28;;;3.15;;
46767;SDS011;69007;48.978;18.066;2023-05-02T10:16:33;4.80;;;3.03;;
46767;SDS011;69007;48.978;18.066;2023-05-02T10:19:06;5.10;;;2.97;;
46767;SDS011;69007;48.978;18.066;2023-05-02T10:21:33;3.75;;;2.85;;
46767;SDS011;69007;48.978;18.066;2023-05-02T10:24:01;2.72;;;2.53;;
46767;SDS011;69007;48.978;18.066;2023-05-02T10:26:28;5.22;;;3.10;;
46767;SDS011;69007;48.978;18.066;2023-05-02T10:28:54;2.75;;;2.47;;
46767;SDS011;69007;48.978;18.066;2023-05-02T10:31:20;3.03;;;2.72;;
46767;SDS011;69007;48.978;18.066;2023-05-02T10:33:47;3.97;;;2.85;;
46767;SDS011;69007;48.978;18.066;2023-05-02T10:36:15;2.78;;;2.47;;
46767;SDS011;69007;48.978;18.066;2023-05-02T10:38:46;2.40;;;2.20;;
46767;SDS011;69007;48.978;18.066;2023-05-02T10:41:13;3.67;;;2.58;;
46767;SDS011;69007;48.978;18.066;2023-05-02T10:43:44;12.60;;;10.50;;
46767;SDS011;69007;48.978;18.066;2023-05-02T10:48:59;6.55;;;2.53;;
46767;SDS011;69007;48.978;18.066;2023-05-02T10:51:32;7.72;;;2.33;;
46767;SDS011;69007;48.978;18.066;2023-05-02T11:05:00;5.38;;;2.60;;
46767;SDS011;69007;48.978;18.066;2023-05-02T11:07:30;3.83;;;2.40;;
46767;SDS011;69007;48.978;18.066;2023-05-02T11:20:28;2.92;;;2.72;;
46767;SDS011;69007;48.978;18.066;2023-05-02T11:22:55;4.78;;;2.78;;
46767;SDS011;69007;48.978;18.066;2023-05-02T11:25:32;4.95;;;2.53;;
46767;SDS011;69007;48.978;18.066;2023-05-02T11:27:59;3.10;;;2.70;;
46767;SDS011;69007;48.978;18.066;2023-05-02T11:30:41;3.35;;;3.03;;
46767;SDS011;69007;48.978;18.066;2023-05-02T11:35:34;5.13;;;2.90;;
46767;SDS011;69007;48.978;18.066;2023-05-02T11:38:01;4.47;;;2.58;;
46767;SDS011;69007;48.978;18.066;2023-05-02T11:40:36;3.35;;;3.00;;
46767;SDS011;69007;48.978;18.066;2023-05-02T11:43:10;2.58;;;2.38;;
46767;SDS011;69007;48.978;18.066;2023-05-02T11:48:06;4.22;;;2.30;;
46767;SDS011;69007;48.978;18.066;2023-05-02T11:50:33;6.43;;;2.70;;
46767;SDS011;69007;48.978;18.066;2023-05-02T11:53:08;3.75;;;2.17;;
46767;SDS011;69007;48.978;18.066;2023-05-02T11:55:35;3.70;;;2.58;;
46767;SDS011;69007;48.978;18.066;2023-05-02T11:58:02;4.35;;;3.05;;
46767;SDS011;69007;48.978;18.066;2023-05-02T12:00:28;5.90;;;2.65;;
46767;SDS011;69007;48.978;18.066;2023-05-02T12:02:54;8.57;;;2.90;;
46767;SDS011;69007;48.978;18.066;2023-05-02T12:05:26;3.33;;;2.25;;
46767;SDS011;69007;48.978;18.066;2023-05-02T12:07:53;3.15;;;2.50;;
46767;SDS011;69007;48.978;18.066;2023-05-02T12:10:18;3.08;;;2.78;;
46767;SDS011;69007;48.978;18.066;2023-05-02T12:12:44;3.92;;;2.80;;
46767;SDS011;69007;48.978;18.066;2023-05-02T12:15:10;4.30;;;2.97;;
46767;SDS011;69007;48.978;18.066;2023-05-02T12:17:37;3.67;;;3.08;;
46767;SDS011;69007;48.978;18.066;2023-05-02T12:20:08;4.15;;;2.78;;
46767;SDS011;69007;48.978;18.066;2023-05-02T12:22:34;3.63;;;2.85;;
46767;SDS011;69007;48.978;18.066;2023-05-02T12:25:01;9.95;;;3.13;;
46767;SDS011;69007;48.978;18.066;2023-05-02T12:27:27;5.60;;;2.97;;
46767;SDS011;69007;48.978;18.066;2023-05-02T12:29:53;4.38;;;3.47;;
46767;SDS011;69007;48.978;18.066;2023-05-02T12:32:28;5.00;;;3.70;;
46767;SDS011;69007;48.978;18.066;2023-05-02T12:34:58;6.25;;;3.30;;
46767;SDS011;69007;48.978;18.066;2023-05-02T12:37:27;5.78;;;3.33;;
46767;SDS011;69007;48.978;18.066;2023-05-02T12:39:53;4.15;;;3.42;;
46767;SDS011;69007;48.978;18.066;2023-05-02T12:42:20;21.55;;;3.90;;
46767;SDS011;69007;48.978;18.066;2023-05-02T12:44:48;3.33;;;3.03;;
46767;SDS011;69007;48.978;18.066;2023-05-02T12:47:18;4.00;;;3.30;;
46767;SDS011;69007;48.978;18.066;2023-05-02T12:52:20;5.40;;;3.08;;
46767;SDS011;69007;48.978;18.066;2023-05-02T12:55:21;3.80;;;3.08;;
46767;SDS011;69007;48.978;18.066;2023-05-02T13:00:24;4.50;;;3.30;;
46767;SDS011;69007;48.978;18.066;2023-05-02T13:02:49;5.30;;;3.88;;
46767;SDS011;69007;48.978;18.066;2023-05-02T13:05:18;9.40;;;3.45;;
46767;SDS011;69007;48.978;18.066;2023-05-02T13:07:44;6.00;;;3.50;;
46767;SDS011;69007;48.978;18.066;2023-05-02T13:10:10;27.23;;;4.28;;
46767;SDS011;69007;48.978;18.066;2023-05-02T13:12:37;24.80;;;4.10;;
46767;SDS011;69007;48.978;18.066;2023-05-02T13:15:03;10.85;;;3.50;;
46767;SDS011;69007;48.978;18.066;2023-05-02T13:17:29;7.82;;;3.65;;
46767;SDS011;69007;48.978;18.066;2023-05-02T13:19:54;8.00;;;3.45;;
46767;SDS011;69007;48.978;18.066;2023-05-02T13:22:20;6.00;;;3.93;;
46767;SDS011;69007;48.978;18.066;2023-05-02T13:24:45;4.07;;;3.60;;
46767;SDS011;69007;48.978;18.066;2023-05-02T13:27:11;5.47;;;3.58;;
46767;SDS011;69007;48.978;18.066;2023-05-02T13:29:36;6.75;;;4.18;;
46767;SDS011;69007;48.978;18.066;2023-05-02T13:32:01;5.25;;;2.78;;
46767;SDS011;69007;48.978;18.066;2023-05-02T13:34:27;3.40;;;3.10;;
46767;SDS011;69007;48.978;18.066;2023-05-02T13:36:52;4.40;;;2.75;;
46767;SDS011;69007;48.978;18.066;2023-05-02T13:39:17;3.10;;;2.80;;
46767;SDS011;69007;48.978;18.066;2023-05-02T13:41:43;3.83;;;2.67;;
46767;SDS011;69007;48.978;18.066;2023-05-02T13:44:08;5.10;;;2.58;;
46767;SDS011;69007;48.978;18.066;2023-05-02T13:46:34;2.72;;;2.40;;
46767;SDS011;69007;48.978;18.066;2023-05-02T13:49:01;3.42;;;3.13;;
46767;SDS011;69007;48.978;18.066;2023-05-02T13:51:27;4.22;;;3.17;;
46767;SDS011;69007;48.978;18.066;2023-05-02T13:53:55;4.88;;;3.30;;
46767;SDS011;69007;48.978;18.066;2023-05-02T13:56:21;3.88;;;3.03;;
46767;SDS011;69007;48.978;18.066;2023-05-02T13:58:46;4.47;;;3.22;;
46767;SDS011;69007;48.978;18.066;2023-05-02T14:01:11;8.32;;;3.50;;
46767;SDS011;69007;48.978;18.066;2023-05-02T14:03:36;9.43;;;3.78;;
46767;SDS011;69007;48.978;18.066;2023-05-02T14:06:02;5.68;;;3.50;;
46767;SDS011;69007;48.978;18.066;2023-05-02T14:08:27;6.55;;;3.90;;
46767;SDS011;69007;48.978;18.066;2023-05-02T14:10:53;3.97;;;3.55;;
46767;SDS011;69007;48.978;18.066;2023-05-02T14:13:18;4.47;;;3.63;;
46767;SDS011;69007;48.978;18.066;2023-05-02T14:15:43;4.72;;;3.58;;
46767;SDS011;69007;48.978;18.066;2023-05-02T14:18:08;3.70;;;3.40;;
46767;SDS011;69007;48.978;18.066;2023-05-02T14:20:34;4.22;;;3.83;;
46767;SDS011;69007;48.978;18.066;2023-05-02T14:22:59;8.40;;;3.85;;
46767;SDS011;69007;48.978;18.066;2023-05-02T14:25:25;5.13;;;3.70;;
46767;SDS011;69007;48.978;18.066;2023-05-02T14:27:51;6.82;;;4.20;;
46767;SDS011;69007;48.978;18.066;2023-05-02T14:30:16;3.90;;;3.50;;
46767;SDS011;69007;48.978;18.066;2023-05-02T14:32:42;4.20;;;3.80;;
46767;SDS011;69007;48.978;18.066;2023-05-02T14:35:07;6.20;;;3.78;;
46767;SDS011;69007;48.978;18.066;2023-05-02T14:37:33;5.47;;;3.70;;
46767;SDS011;69007;48.978;18.066;2023-05-02T14:39:58;4.40;;;3.40;;
46767;SDS011;69007;48.978;18.066;2023-05-02T14:42:24;11.23;;;3.60;;
46767;SDS011;69007;48.978;18.066;2023-05-02T14:44:49;5.68;;;4.63;;
46767;SDS011;69007;48.978;18.066;2023-05-02T14:47:15;6.07;;;4.90;;
46767;SDS011;69007;48.978;18.066;2023-05-02T14:49:42;5.03;;;4.25;;
46767;SDS011;69007;48.978;18.066;2023-05-02T14:52:08;3.80;;;3.50;;
46767;SDS011;69007;48.978;18.066;2023-05-02T14:54:33;48.83;;;6.40;;
46767;SDS011;69007;48.978;18.066;2023-05-02T14:56:59;6.35;;;5.05;;
46767;SDS011;69007;48.978;18.066;2023-05-02T14:59:27;4.80;;;4.38;;
46767;SDS011;69007;48.978;18.066;2023-05-02T15:01:53;7.18;;;4.55;;
46767;SDS011;69007;48.978;18.066;2023-05-02T15:04:18;4.32;;;3.92;;
46767;SDS011;69007;48.978;18.066;2023-05-02T15:06:44;5.05;;;4.55;;
46767;SDS011;69007;48.978;18.066;2023-05-02T15:09:10;7.70;;;4.25;;
46767;SDS011;69007;48.978;18.066;2023-05-02T15:11:36;4.88;;;4.47;;
46767;SDS011;69007;48.978;18.066;2023-05-02T15:14:02;6.07;;;4.70;;
46767;SDS011;69007;48.978;18.066;2023-05-02T15:16:27;7.93;;;4.50;;
46767;SDS011;69007;48.978;18.066;2023-05-02T15:18:53;5.88;;;4.63;;
46767;SDS011;69007;48.978;18.066;2023-05-02T15:21:19;5.00;;;4.57;;
46767;SDS011;69007;48.978;18.066;2023-05-02T15:23:45;8.23;;;4.63;;
46767;SDS011;69007;48.978;18.066;2023-05-02T15:26:11;7.38;;;4.55;;
46767;SDS011;69007;48.978;18.066;2023-05-02T15:28:37;5.50;;;4.97;;
46767;SDS011;69007;48.978;18.066;2023-05-02T15:31:03;5.25;;;4.75;;
46767;SDS011;69007;48.978;18.066;2023-05-02T15:33:29;9.80;;;4.63;;
46767;SDS011;69007;48.978;18.066;2023-05-02T15:35:55;12.57;;;4.85;;
46767;SDS011;69007;48.978;18.066;2023-05-02T15:38:24;5.70;;;4.60;;
46767;SDS011;69007;48.978;18.066;2023-05-02T15:40:57;6.28;;;4.13;;
46767;SDS011;69007;48.978;18.066;2023-05-02T15:43:24;4.30;;;3.90;;
46767;SDS011;69007;48.978;18.066;2023-05-02T15:45:50;4.32;;;3.92;;